sensor_id;sensor_type;location;lat;lon;timestamp;temperature;humidity
44166;DHT22;30476;53.468;9.826;2022-07-29T00:02:24;16.50;86.90
44166;DHT22;30476;53.468;9.826;2022-07-29T00:04:50;16.40;86.80
44166;DHT22;30476;53.468;9.826;2022-07-29T00:07:16;16.40;86.90
44166;DHT22;30476;53.468;9.826;2022-07-29T00:09:42;16.40;87.10
44166;DHT22;30476;53.468;9.826;2022-07-29T00:12:07;16.40;87.40
44166;DHT22;30476;53.468;9.826;2022-07-29T00:14:33;16.30;87.50
44166;DHT22;30476;53.468;9.826;2022-07-29T00:16:59;16.30;87.70
44166;DHT22;30476;53.468;9.826;2022-07-29T00:19:25;16.30;88.00
44166;DHT22;30476;53.468;9.826;2022-07-29T00:21:50;16.20;88.10
44166;DHT22;30476;53.468;9.826;2022-07-29T00:24:16;16.20;88.50
44166;DHT22;30476;53.468;9.826;2022-07-29T00:26:42;16.10;88.50
44166;DHT22;30476;53.468;9.826;2022-07-29T00:29:08;16.10;88.90
44166;DHT22;30476;53.468;9.826;2022-07-29T00:31:34;16.10;89.00
44166;DHT22;30476;53.468;9.826;2022-07-29T00:33:59;16.00;89.00
44166;DHT22;30476;53.468;9.826;2022-07-29T00:36:25;15.90;89.10
44166;DHT22;30476;53.468;9.826;2022-07-29T00:38:51;15.90;89.30
44166;DHT22;30476;53.468;9.826;2022-07-29T00:41:17;15.90;89.40
44166;DHT22;30476;53.468;9.826;2022-07-29T00:43:44;15.90;89.50
44166;DHT22;30476;53.468;9.826;2022-07-29T00:46:10;15.80;89.60
44166;DHT22;30476;53.468;9.826;2022-07-29T00:48:36;15.80;89.80
44166;DHT22;30476;53.468;9.826;2022-07-29T00:51:04;15.70;89.60
44166;DHT22;30476;53.468;9.826;2022-07-29T00:53:31;15.80;89.70
44166;DHT22;30476;53.468;9.826;2022-07-29T00:55:58;15.70;89.60
44166;DHT22;30476;53.468;9.826;2022-07-29T00:58:24;15.70;89.60
44166;DHT22;30476;53.468;9.826;2022-07-29T01:00:52;15.70;89.80
44166;DHT22;30476;53.468;9.826;2022-07-29T01:03:18;15.70;89.70
44166;DHT22;30476;53.468;9.826;2022-07-29T01:05:45;15.70;89.80
44166;DHT22;30476;53.468;9.826;2022-07-29T01:08:15;15.70;89.80
44166;DHT22;30476;53.468;9.826;2022-07-29T01:10:41;15.60;89.70
44166;DHT22;30476;53.468;9.826;2022-07-29T01:13:09;15.60;89.90
44166;DHT22;30476;53.468;9.826;2022-07-29T01:15:43;15.60;90.00
44166;DHT22;30476;53.468;9.826;2022-07-29T01:18:46;15.60;90.00
44166;DHT22;30476;53.468;9.826;2022-07-29T01:21:50;15.60;90.00
44166;DHT22;30476;53.468;9.826;2022-07-29T01:27:39;15.50;90.00
44166;DHT22;30476;53.468;9.826;2022-07-29T01:30:07;15.50;90.00
44166;DHT22;30476;53.468;9.826;2022-07-29T01:32:36;15.40;90.10
44166;DHT22;30476;53.468;9.826;2022-07-29T01:35:23;15.40;90.10
44166;DHT22;30476;53.468;9.826;2022-07-29T01:38:01;15.50;90.20
44166;DHT22;30476;53.468;9.826;2022-07-29T01:40:43;15.40;90.20
44166;DHT22;30476;53.468;9.826;2022-07-29T01:43:16;15.50;90.20
44166;DHT22;30476;53.468;9.826;2022-07-29T01:45:50;15.50;90.10
44166;DHT22;30476;53.468;9.826;2022-07-29T01:48:24;15.40;90.10
44166;DHT22;30476;53.468;9.826;2022-07-29T01:51:04;15.50;90.00
44166;DHT22;30476;53.468;9.826;2022-07-29T01:53:47;15.50;90.10
44166;DHT22;30476;53.468;9.826;2022-07-29T01:56:17;15.50;89.90
44166;DHT22;30476;53.468;9.826;2022-07-29T01:58:44;15.60;90.00
44166;DHT22;30476;53.468;9.826;2022-07-29T02:01:12;15.60;90.00
44166;DHT22;30476;53.468;9.826;2022-07-29T02:03:39;15.60;90.00
44166;DHT22;30476;53.468;9.826;2022-07-29T02:06:09;15.60;89.90
44166;DHT22;30476;53.468;9.826;2022-07-29T02:08:38;15.60;90.00
44166;DHT22;30476;53.468;9.826;2022-07-29T02:11:06;15.60;90.00
44166;DHT22;30476;53.468;9.826;2022-07-29T02:13:34;15.60;90.10
44166;DHT22;30476;53.468;9.826;2022-07-29T02:16:02;15.60;90.10
44166;DHT22;30476;53.468;9.826;2022-07-29T02:18:30;15.60;90.20
44166;DHT22;30476;53.468;9.826;2022-07-29T02:20:58;15.60;90.10
44166;DHT22;30476;53.468;9.826;2022-07-29T02:23:26;15.60;90.10
44166;DHT22;30476;53.468;9.826;2022-07-29T02:25:56;15.70;90.20
44166;DHT22;30476;53.468;9.826;2022-07-29T02:28:28;15.60;90.10
44166;DHT22;30476;53.468;9.826;2022-07-29T02:30:58;15.60;90.40
44166;DHT22;30476;53.468;9.826;2022-07-29T02:33:25;15.70;90.10
44166;DHT22;30476;53.468;9.826;2022-07-29T02:35:52;15.70;90.10
44166;DHT22;30476;53.468;9.826;2022-07-29T02:38:20;15.60;90.10
44166;DHT22;30476;53.468;9.826;2022-07-29T02:41:15;15.60;90.10
44166;DHT22;30476;53.468;9.826;2022-07-29T02:43:43;15.60;90.10
44166;DHT22;30476;53.468;9.826;2022-07-29T02:46:14;15.60;90.00
44166;DHT22;30476;53.468;9.826;2022-07-29T02:48:55;15.60;90.10
44166;DHT22;30476;53.468;9.826;2022-07-29T02:51:32;15.60;90.10
44166;DHT22;30476;53.468;9.826;2022-07-29T02:54:01;15.60;90.10
44166;DHT22;30476;53.468;9.826;2022-07-29T02:56:31;15.60;90.10
44166;DHT22;30476;53.468;9.826;2022-07-29T02:59:04;15.60;90.20
44166;DHT22;30476;53.468;9.826;2022-07-29T03:01:32;15.60;90.20
44166;DHT22;30476;53.468;9.826;2022-07-29T03:04:03;15.60;90.30
44166;DHT22;30476;53.468;9.826;2022-07-29T03:06:30;15.60;90.30
44166;DHT22;30476;53.468;9.826;2022-07-29T03:08:59;15.60;90.30
44166;DHT22;30476;53.468;9.826;2022-07-29T03:11:26;15.60;90.40
44166;DHT22;30476;53.468;9.826;2022-07-29T03:13:52;15.60;90.40
44166;DHT22;30476;53.468;9.826;2022-07-29T03:16:19;15.60;90.40
44166;DHT22;30476;53.468;9.826;2022-07-29T03:18:47;15.60;90.50
44166;DHT22;30476;53.468;9.826;2022-07-29T03:21:12;15.60;90.60
44166;DHT22;30476;53.468;9.826;2022-07-29T03:23:43;15.60;90.60
44166;DHT22;30476;53.468;9.826;2022-07-29T03:26:11;15.60;90.60
44166;DHT22;30476;53.468;9.826;2022-07-29T03:28:37;15.60;90.60
44166;DHT22;30476;53.468;9.826;2022-07-29T03:31:03;15.50;90.70
44166;DHT22;30476;53.468;9.826;2022-07-29T03:33:28;15.50;90.70
44166;DHT22;30476;53.468;9.826;2022-07-29T03:35:56;15.50;90.80
44166;DHT22;30476;53.468;9.826;2022-07-29T03:38:25;15.50;90.90
44166;DHT22;30476;53.468;9.826;2022-07-29T03:40:56;15.50;90.90
44166;DHT22;30476;53.468;9.826;2022-07-29T03:43:24;15.50;90.80
44166;DHT22;30476;53.468;9.826;2022-07-29T03:45:54;15.50;91.20
44166;DHT22;30476;53.468;9.826;2022-07-29T03:48:22;15.60;90.90
44166;DHT22;30476;53.468;9.826;2022-07-29T03:50:50;15.60;91.00
44166;DHT22;30476;53.468;9.826;2022-07-29T03:53:16;15.60;91.00
44166;DHT22;30476;53.468;9.826;2022-07-29T03:55:45;15.60;90.90
44166;DHT22;30476;53.468;9.826;2022-07-29T03:58:13;15.50;90.90
44166;DHT22;30476;53.468;9.826;2022-07-29T04:00:40;15.60;91.00
44166;DHT22;30476;53.468;9.826;2022-07-29T04:03:08;15.60;91.40
44166;DHT22;30476;53.468;9.826;2022-07-29T04:05:34;15.60;91.10
44166;DHT22;30476;53.468;9.826;2022-07-29T04:08:00;15.60;91.10
44166;DHT22;30476;53.468;9.826;2022-07-29T04:10:26;15.60;91.20
44166;DHT22;30476;53.468;9.826;2022-07-29T04:12:52;15.60;91.10
44166;DHT22;30476;53.468;9.826;2022-07-29T04:15:18;15.70;91.20
44166;DHT22;30476;53.468;9.826;2022-07-29T04:17:44;15.70;91.20
44166;DHT22;30476;53.468;9.826;2022-07-29T04:20:10;15.70;91.20
44166;DHT22;30476;53.468;9.826;2022-07-29T04:22:39;15.70;91.20
44166;DHT22;30476;53.468;9.826;2022-07-29T04:25:05;15.70;91.20
44166;DHT22;30476;53.468;9.826;2022-07-29T04:27:32;15.60;91.10
44166;DHT22;30476;53.468;9.826;2022-07-29T04:29:57;15.70;91.30
44166;DHT22;30476;53.468;9.826;2022-07-29T04:32:26;15.70;91.30
44166;DHT22;30476;53.468;9.826;2022-07-29T04:34:52;15.70;91.30
44166;DHT22;30476;53.468;9.826;2022-07-29T04:37:18;15.70;91.30
44166;DHT22;30476;53.468;9.826;2022-07-29T04:39:44;15.70;91.30
44166;DHT22;30476;53.468;9.826;2022-07-29T04:42:09;15.70;91.30
44166;DHT22;30476;53.468;9.826;2022-07-29T04:44:35;15.80;91.30
44166;DHT22;30476;53.468;9.826;2022-07-29T04:47:01;15.70;91.30
44166;DHT22;30476;53.468;9.826;2022-07-29T04:49:27;15.70;91.40
44166;DHT22;30476;53.468;9.826;2022-07-29T04:51:53;15.80;91.50
44166;DHT22;30476;53.468;9.826;2022-07-29T04:54:19;15.80;91.40
44166;DHT22;30476;53.468;9.826;2022-07-29T04:56:44;15.90;91.30
44166;DHT22;30476;53.468;9.826;2022-07-29T04:59:12;15.90;91.40
44166;DHT22;30476;53.468;9.826;2022-07-29T05:01:37;15.90;91.50
44166;DHT22;30476;53.468;9.826;2022-07-29T05:04:03;16.00;91.50
44166;DHT22;30476;53.468;9.826;2022-07-29T05:06:29;16.00;91.40
44166;DHT22;30476;53.468;9.826;2022-07-29T05:08:55;16.00;91.40
44166;DHT22;30476;53.468;9.826;2022-07-29T05:11:20;16.00;91.40
44166;DHT22;30476;53.468;9.826;2022-07-29T05:13:46;16.00;91.40
44166;DHT22;30476;53.468;9.826;2022-07-29T05:16:12;16.00;91.50
44166;DHT22;30476;53.468;9.826;2022-07-29T05:18:38;16.10;91.90
44166;DHT22;30476;53.468;9.826;2022-07-29T05:21:04;16.10;91.50
44166;DHT22;30476;53.468;9.826;2022-07-29T05:23:30;16.20;91.50
44166;DHT22;30476;53.468;9.826;2022-07-29T05:25:56;16.20;91.40
44166;DHT22;30476;53.468;9.826;2022-07-29T05:28:22;16.30;91.40
44166;DHT22;30476;53.468;9.826;2022-07-29T05:30:48;16.40;91.40
44166;DHT22;30476;53.468;9.826;2022-07-29T05:33:14;16.30;91.30
44166;DHT22;30476;53.468;9.826;2022-07-29T05:35:41;16.40;91.20
44166;DHT22;30476;53.468;9.826;2022-07-29T05:38:06;16.50;91.30
44166;DHT22;30476;53.468;9.826;2022-07-29T05:40:32;16.50;91.30
44166;DHT22;30476;53.468;9.826;2022-07-29T05:42:59;16.60;91.20
44166;DHT22;30476;53.468;9.826;2022-07-29T05:45:25;16.60;91.20
44166;DHT22;30476;53.468;9.826;2022-07-29T05:47:51;16.70;91.20
44166;DHT22;30476;53.468;9.826;2022-07-29T05:50:17;16.70;91.20
44166;DHT22;30476;53.468;9.826;2022-07-29T05:52:42;16.70;91.00
44166;DHT22;30476;53.468;9.826;2022-07-29T05:55:08;16.70;91.10
44166;DHT22;30476;53.468;9.826;2022-07-29T05:57:34;16.80;91.00
44166;DHT22;30476;53.468;9.826;2022-07-29T06:00:00;16.90;90.90
44166;DHT22;30476;53.468;9.826;2022-07-29T06:02:26;16.90;90.90
44166;DHT22;30476;53.468;9.826;2022-07-29T06:04:52;17.00;90.90
44166;DHT22;30476;53.468;9.826;2022-07-29T06:07:18;17.00;90.90
44166;DHT22;30476;53.468;9.826;2022-07-29T06:09:44;17.10;90.80
44166;DHT22;30476;53.468;9.826;2022-07-29T06:12:09;17.20;90.70
44166;DHT22;30476;53.468;9.826;2022-07-29T06:14:35;17.20;90.80
44166;DHT22;30476;53.468;9.826;2022-07-29T06:17:01;17.30;90.80
44166;DHT22;30476;53.468;9.826;2022-07-29T06:19:27;17.30;90.70
44166;DHT22;30476;53.468;9.826;2022-07-29T06:21:53;17.40;90.70
44166;DHT22;30476;53.468;9.826;2022-07-29T06:24:19;17.50;90.60
44166;DHT22;30476;53.468;9.826;2022-07-29T06:26:45;17.60;90.50
44166;DHT22;30476;53.468;9.826;2022-07-29T06:29:11;17.50;90.50
44166;DHT22;30476;53.468;9.826;2022-07-29T06:31:37;17.60;90.40
44166;DHT22;30476;53.468;9.826;2022-07-29T06:34:03;17.70;90.30
44166;DHT22;30476;53.468;9.826;2022-07-29T06:36:29;17.80;90.20
44166;DHT22;30476;53.468;9.826;2022-07-29T06:38:55;17.80;90.20
44166;DHT22;30476;53.468;9.826;2022-07-29T06:41:21;17.90;90.30
44166;DHT22;30476;53.468;9.826;2022-07-29T06:43:48;18.00;90.20
44166;DHT22;30476;53.468;9.826;2022-07-29T06:46:17;18.10;90.30
44166;DHT22;30476;53.468;9.826;2022-07-29T06:48:44;18.10;90.00
44166;DHT22;30476;53.468;9.826;2022-07-29T06:51:11;18.20;90.00
44166;DHT22;30476;53.468;9.826;2022-07-29T06:53:38;18.40;90.20
44166;DHT22;30476;53.468;9.826;2022-07-29T06:56:04;18.40;90.20
44166;DHT22;30476;53.468;9.826;2022-07-29T06:58:31;18.60;89.90
44166;DHT22;30476;53.468;9.826;2022-07-29T07:01:02;18.70;89.10
44166;DHT22;30476;53.468;9.826;2022-07-29T07:03:28;18.70;88.70
44166;DHT22;30476;53.468;9.826;2022-07-29T07:05:54;18.70;88.90
44166;DHT22;30476;53.468;9.826;2022-07-29T07:08:21;18.80;88.90
44166;DHT22;30476;53.468;9.826;2022-07-29T07:10:48;18.90;88.60
44166;DHT22;30476;53.468;9.826;2022-07-29T07:13:14;18.90;88.10
44166;DHT22;30476;53.468;9.826;2022-07-29T07:15:40;18.90;87.80
44166;DHT22;30476;53.468;9.826;2022-07-29T07:18:06;19.00;88.00
44166;DHT22;30476;53.468;9.826;2022-07-29T07:20:33;18.90;88.10
44166;DHT22;30476;53.468;9.826;2022-07-29T07:22:59;19.00;88.30
44166;DHT22;30476;53.468;9.826;2022-07-29T07:25:25;19.10;88.00
44166;DHT22;30476;53.468;9.826;2022-07-29T07:27:51;19.00;87.70
44166;DHT22;30476;53.468;9.826;2022-07-29T07:30:17;19.10;88.10
44166;DHT22;30476;53.468;9.826;2022-07-29T07:32:42;19.10;87.90
44166;DHT22;30476;53.468;9.826;2022-07-29T07:35:09;19.20;88.00
44166;DHT22;30476;53.468;9.826;2022-07-29T07:37:36;19.20;88.70
44166;DHT22;30476;53.468;9.826;2022-07-29T07:40:02;19.30;88.70
44166;DHT22;30476;53.468;9.826;2022-07-29T07:42:28;19.50;89.60
44166;DHT22;30476;53.468;9.826;2022-07-29T07:44:54;19.60;88.70
44166;DHT22;30476;53.468;9.826;2022-07-29T07:47:20;19.90;87.50
44166;DHT22;30476;53.468;9.826;2022-07-29T07:49:46;20.10;87.00
44166;DHT22;30476;53.468;9.826;2022-07-29T07:52:14;20.30;86.10
44166;DHT22;30476;53.468;9.826;2022-07-29T07:54:39;20.50;85.20
44166;DHT22;30476;53.468;9.826;2022-07-29T07:57:05;20.80;85.00
44166;DHT22;30476;53.468;9.826;2022-07-29T07:59:31;20.90;84.60
44166;DHT22;30476;53.468;9.826;2022-07-29T08:01:57;21.20;83.50
44166;DHT22;30476;53.468;9.826;2022-07-29T08:04:23;21.30;81.90
44166;DHT22;30476;53.468;9.826;2022-07-29T08:06:50;21.50;81.20
44166;DHT22;30476;53.468;9.826;2022-07-29T08:09:16;21.60;80.90
44166;DHT22;30476;53.468;9.826;2022-07-29T08:11:42;21.80;80.70
44166;DHT22;30476;53.468;9.826;2022-07-29T08:14:07;21.90;80.90
44166;DHT22;30476;53.468;9.826;2022-07-29T08:16:33;22.00;80.20
44166;DHT22;30476;53.468;9.826;2022-07-29T08:18:59;22.20;79.80
44166;DHT22;30476;53.468;9.826;2022-07-29T08:21:25;22.30;78.80
44166;DHT22;30476;53.468;9.826;2022-07-29T08:23:51;22.40;78.60
44166;DHT22;30476;53.468;9.826;2022-07-29T08:26:41;22.60;78.20
44166;DHT22;30476;53.468;9.826;2022-07-29T08:29:07;22.80;77.80
44166;DHT22;30476;53.468;9.826;2022-07-29T08:31:33;22.90;77.30
44166;DHT22;30476;53.468;9.826;2022-07-29T08:33:59;23.10;76.90
44166;DHT22;30476;53.468;9.826;2022-07-29T08:36:26;23.20;76.50
44166;DHT22;30476;53.468;9.826;2022-07-29T08:38:52;23.30;76.70
44166;DHT22;30476;53.468;9.826;2022-07-29T08:41:19;23.50;76.20
44166;DHT22;30476;53.468;9.826;2022-07-29T08:43:46;23.60;74.80
44166;DHT22;30476;53.468;9.826;2022-07-29T08:46:11;23.80;74.50
44166;DHT22;30476;53.468;9.826;2022-07-29T08:48:38;23.90;74.50
44166;DHT22;30476;53.468;9.826;2022-07-29T08:51:06;24.10;74.30
44166;DHT22;30476;53.468;9.826;2022-07-29T08:53:33;24.20;72.70
44166;DHT22;30476;53.468;9.826;2022-07-29T08:55:59;24.30;72.20
44166;DHT22;30476;53.468;9.826;2022-07-29T08:58:26;24.40;72.30
44166;DHT22;30476;53.468;9.826;2022-07-29T09:00:54;24.30;72.00
44166;DHT22;30476;53.468;9.826;2022-07-29T09:03:23;24.30;71.90
44166;DHT22;30476;53.468;9.826;2022-07-29T09:05:49;24.30;71.70
44166;DHT22;30476;53.468;9.826;2022-07-29T09:08:16;24.20;71.60
44166;DHT22;30476;53.468;9.826;2022-07-29T09:10:43;24.20;71.70
44166;DHT22;30476;53.468;9.826;2022-07-29T09:13:09;24.10;71.40
44166;DHT22;30476;53.468;9.826;2022-07-29T09:15:35;24.00;71.30
44166;DHT22;30476;53.468;9.826;2022-07-29T09:18:01;23.90;71.60
44166;DHT22;30476;53.468;9.826;2022-07-29T09:20:28;23.90;72.00
44166;DHT22;30476;53.468;9.826;2022-07-29T09:23:14;23.80;72.20
44166;DHT22;30476;53.468;9.826;2022-07-29T09:25:41;23.80;72.60
44166;DHT22;30476;53.468;9.826;2022-07-29T09:28:15;23.70;72.50
44166;DHT22;30476;53.468;9.826;2022-07-29T09:30:56;23.70;72.10
44166;DHT22;30476;53.468;9.826;2022-07-29T09:33:31;23.60;72.10
44166;DHT22;30476;53.468;9.826;2022-07-29T09:36:08;23.70;72.30
44166;DHT22;30476;53.468;9.826;2022-07-29T09:38:35;23.60;72.40
44166;DHT22;30476;53.468;9.826;2022-07-29T09:41:03;23.60;72.30
44166;DHT22;30476;53.468;9.826;2022-07-29T09:43:30;23.60;72.60
44166;DHT22;30476;53.468;9.826;2022-07-29T09:45:55;23.60;72.70
44166;DHT22;30476;53.468;9.826;2022-07-29T09:48:24;23.60;72.70
44166;DHT22;30476;53.468;9.826;2022-07-29T09:50:50;23.50;72.70
44166;DHT22;30476;53.468;9.826;2022-07-29T09:53:37;23.50;72.70
44166;DHT22;30476;53.468;9.826;2022-07-29T09:56:06;23.50;72.50
44166;DHT22;30476;53.468;9.826;2022-07-29T09:58:32;23.40;72.50
44166;DHT22;30476;53.468;9.826;2022-07-29T10:01:01;23.50;72.60
44166;DHT22;30476;53.468;9.826;2022-07-29T10:03:27;23.50;73.90
44166;DHT22;30476;53.468;9.826;2022-07-29T10:06:10;23.50;73.40
44166;DHT22;30476;53.468;9.826;2022-07-29T10:08:36;23.50;73.40
44166;DHT22;30476;53.468;9.826;2022-07-29T10:11:15;23.60;73.80
44166;DHT22;30476;53.468;9.826;2022-07-29T10:13:42;23.60;73.80
44166;DHT22;30476;53.468;9.826;2022-07-29T10:16:08;23.60;73.60
44166;DHT22;30476;53.468;9.826;2022-07-29T10:18:34;23.70;73.50
44166;DHT22;30476;53.468;9.826;2022-07-29T10:21:01;23.80;73.50
44166;DHT22;30476;53.468;9.826;2022-07-29T10:23:28;23.80;73.30
44166;DHT22;30476;53.468;9.826;2022-07-29T10:25:54;23.90;72.40
44166;DHT22;30476;53.468;9.826;2022-07-29T10:28:20;24.00;71.90
44166;DHT22;30476;53.468;9.826;2022-07-29T10:30:49;24.10;71.40
44166;DHT22;30476;53.468;9.826;2022-07-29T10:36:15;24.40;71.50
44166;DHT22;30476;53.468;9.826;2022-07-29T10:38:49;24.40;69.80
44166;DHT22;30476;53.468;9.826;2022-07-29T10:44:22;24.80;68.00
44166;DHT22;30476;53.468;9.826;2022-07-29T10:46:50;24.90;68.30
44166;DHT22;30476;53.468;9.826;2022-07-29T10:49:24;25.00;67.50
44166;DHT22;30476;53.468;9.826;2022-07-29T10:54:41;25.40;64.70
44166;DHT22;30476;53.468;9.826;2022-07-29T10:57:27;25.60;64.80
44166;DHT22;30476;53.468;9.826;2022-07-29T11:05:01;25.80;62.90
44166;DHT22;30476;53.468;9.826;2022-07-29T11:07:29;25.80;62.60
44166;DHT22;30476;53.468;9.826;2022-07-29T11:15:09;26.00;62.90
44166;DHT22;30476;53.468;9.826;2022-07-29T11:23:17;26.10;61.40
44166;DHT22;30476;53.468;9.826;2022-07-29T11:25:43;26.20;61.80
44166;DHT22;30476;53.468;9.826;2022-07-29T11:28:15;26.30;62.70
44166;DHT22;30476;53.468;9.826;2022-07-29T11:30:52;26.30;61.50
44166;DHT22;30476;53.468;9.826;2022-07-29T11:33:28;26.50;61.10
44166;DHT22;30476;53.468;9.826;2022-07-29T11:36:14;26.50;60.80
44166;DHT22;30476;53.468;9.826;2022-07-29T11:38:40;26.70;61.10
44166;DHT22;30476;53.468;9.826;2022-07-29T11:41:26;26.80;60.80
44166;DHT22;30476;53.468;9.826;2022-07-29T11:43:55;27.00;59.30
44166;DHT22;30476;53.468;9.826;2022-07-29T11:49:21;27.30;58.90
44166;DHT22;30476;53.468;9.826;2022-07-29T11:51:55;27.50;59.20
44166;DHT22;30476;53.468;9.826;2022-07-29T11:54:34;27.60;57.80
44166;DHT22;30476;53.468;9.826;2022-07-29T11:57:00;27.90;56.60
44166;DHT22;30476;53.468;9.826;2022-07-29T11:59:26;28.10;55.80
44166;DHT22;30476;53.468;9.826;2022-07-29T12:01:57;28.30;56.10
44166;DHT22;30476;53.468;9.826;2022-07-29T12:04:23;28.40;54.60
44166;DHT22;30476;53.468;9.826;2022-07-29T12:06:50;28.50;53.20
44166;DHT22;30476;53.468;9.826;2022-07-29T12:09:17;28.50;53.50
44166;DHT22;30476;53.468;9.826;2022-07-29T12:11:43;28.60;53.40
44166;DHT22;30476;53.468;9.826;2022-07-29T12:14:09;28.70;53.70
44166;DHT22;30476;53.468;9.826;2022-07-29T12:16:36;28.70;52.70
44166;DHT22;30476;53.468;9.826;2022-07-29T12:19:03;28.90;52.80
44166;DHT22;30476;53.468;9.826;2022-07-29T12:21:46;29.00;52.10
44166;DHT22;30476;53.468;9.826;2022-07-29T12:24:12;29.20;51.90
44166;DHT22;30476;53.468;9.826;2022-07-29T12:26:56;29.20;51.80
44166;DHT22;30476;53.468;9.826;2022-07-29T12:29:22;29.40;51.10
44166;DHT22;30476;53.468;9.826;2022-07-29T12:31:52;29.50;52.20
44166;DHT22;30476;53.468;9.826;2022-07-29T12:34:23;29.60;51.40
44166;DHT22;30476;53.468;9.826;2022-07-29T12:36:50;29.70;50.40
44166;DHT22;30476;53.468;9.826;2022-07-29T12:39:16;29.80;51.60
44166;DHT22;30476;53.468;9.826;2022-07-29T12:41:43;29.80;50.80
44166;DHT22;30476;53.468;9.826;2022-07-29T12:44:09;30.00;50.30
44166;DHT22;30476;53.468;9.826;2022-07-29T12:46:35;30.00;50.10
44166;DHT22;30476;53.468;9.826;2022-07-29T12:49:02;30.10;47.60
44166;DHT22;30476;53.468;9.826;2022-07-29T12:51:33;30.20;49.10
44166;DHT22;30476;53.468;9.826;2022-07-29T12:54:13;30.30;48.80
44166;DHT22;30476;53.468;9.826;2022-07-29T12:56:44;30.40;48.80
44166;DHT22;30476;53.468;9.826;2022-07-29T12:59:18;30.50;47.70
44166;DHT22;30476;53.468;9.826;2022-07-29T13:01:46;30.60;47.20
44166;DHT22;30476;53.468;9.826;2022-07-29T13:04:26;30.70;46.90
44166;DHT22;30476;53.468;9.826;2022-07-29T13:07:05;30.70;47.50
44166;DHT22;30476;53.468;9.826;2022-07-29T13:09:37;30.70;46.90
44166;DHT22;30476;53.468;9.826;2022-07-29T13:12:08;30.70;47.40
44166;DHT22;30476;53.468;9.826;2022-07-29T13:14:37;30.80;46.80
44166;DHT22;30476;53.468;9.826;2022-07-29T13:17:11;30.80;45.70
44166;DHT22;30476;53.468;9.826;2022-07-29T13:19:39;30.80;42.90
44166;DHT22;30476;53.468;9.826;2022-07-29T13:22:10;30.70;43.40
44166;DHT22;30476;53.468;9.826;2022-07-29T13:27:20;30.40;43.30
44166;DHT22;30476;53.468;9.826;2022-07-29T13:29:46;30.30;44.10
44166;DHT22;30476;53.468;9.826;2022-07-29T13:32:13;30.10;44.20
44166;DHT22;30476;53.468;9.826;2022-07-29T13:34:39;30.10;44.10
44166;DHT22;30476;53.468;9.826;2022-07-29T13:37:05;30.00;44.30
44166;DHT22;30476;53.468;9.826;2022-07-29T13:39:31;30.00;44.40
44166;DHT22;30476;53.468;9.826;2022-07-29T13:41:57;30.10;44.40
44166;DHT22;30476;53.468;9.826;2022-07-29T13:44:23;30.10;43.70
44166;DHT22;30476;53.468;9.826;2022-07-29T13:46:48;30.10;43.90
44166;DHT22;30476;53.468;9.826;2022-07-29T13:49:14;30.10;43.30
44166;DHT22;30476;53.468;9.826;2022-07-29T13:51:40;30.10;43.20
44166;DHT22;30476;53.468;9.826;2022-07-29T13:54:06;30.10;43.20
44166;DHT22;30476;53.468;9.826;2022-07-29T13:56:31;30.10;43.50
44166;DHT22;30476;53.468;9.826;2022-07-29T13:58:57;30.10;44.30
44166;DHT22;30476;53.468;9.826;2022-07-29T14:01:23;30.10;44.30
44166;DHT22;30476;53.468;9.826;2022-07-29T14:03:50;30.20;44.30
44166;DHT22;30476;53.468;9.826;2022-07-29T14:06:15;30.20;43.90
44166;DHT22;30476;53.468;9.826;2022-07-29T14:08:41;30.30;42.90
44166;DHT22;30476;53.468;9.826;2022-07-29T14:11:07;30.30;42.90
44166;DHT22;30476;53.468;9.826;2022-07-29T14:13:33;30.40;43.00
44166;DHT22;30476;53.468;9.826;2022-07-29T14:15:58;30.50;43.00
44166;DHT22;30476;53.468;9.826;2022-07-29T14:18:24;30.50;41.80
44166;DHT22;30476;53.468;9.826;2022-07-29T14:20:50;30.60;41.70
44166;DHT22;30476;53.468;9.826;2022-07-29T14:23:17;30.70;43.00
44166;DHT22;30476;53.468;9.826;2022-07-29T14:25:43;30.60;42.30
44166;DHT22;30476;53.468;9.826;2022-07-29T14:28:08;30.70;43.00
44166;DHT22;30476;53.468;9.826;2022-07-29T14:30:34;30.70;42.20
44166;DHT22;30476;53.468;9.826;2022-07-29T14:33:00;30.60;41.20
44166;DHT22;30476;53.468;9.826;2022-07-29T14:35:26;30.50;45.90
44166;DHT22;30476;53.468;9.826;2022-07-29T14:37:51;30.30;48.00
44166;DHT22;30476;53.468;9.826;2022-07-29T14:40:17;30.10;49.00
44166;DHT22;30476;53.468;9.826;2022-07-29T14:42:43;29.90;49.80
44166;DHT22;30476;53.468;9.826;2022-07-29T14:45:09;29.90;50.80
44166;DHT22;30476;53.468;9.826;2022-07-29T14:47:36;29.70;51.40
44166;DHT22;30476;53.468;9.826;2022-07-29T14:50:03;29.70;51.20
44166;DHT22;30476;53.468;9.826;2022-07-29T14:52:29;29.60;51.10
44166;DHT22;30476;53.468;9.826;2022-07-29T14:54:55;29.50;51.80
44166;DHT22;30476;53.468;9.826;2022-07-29T14:57:21;29.40;52.50
44166;DHT22;30476;53.468;9.826;2022-07-29T14:59:46;29.30;52.80
44166;DHT22;30476;53.468;9.826;2022-07-29T15:02:12;29.30;53.20
44166;DHT22;30476;53.468;9.826;2022-07-29T15:04:38;29.10;52.20
44166;DHT22;30476;53.468;9.826;2022-07-29T15:07:04;29.00;52.60
44166;DHT22;30476;53.468;9.826;2022-07-29T15:09:30;28.90;52.90
44166;DHT22;30476;53.468;9.826;2022-07-29T15:11:55;28.80;53.20
44166;DHT22;30476;53.468;9.826;2022-07-29T15:14:21;28.80;53.10
44166;DHT22;30476;53.468;9.826;2022-07-29T15:16:47;28.60;53.30
44166;DHT22;30476;53.468;9.826;2022-07-29T15:19:13;28.50;53.50
44166;DHT22;30476;53.468;9.826;2022-07-29T15:21:39;28.40;54.20
44166;DHT22;30476;53.468;9.826;2022-07-29T15:24:05;28.30;54.70
44166;DHT22;30476;53.468;9.826;2022-07-29T15:26:32;28.30;55.00
44166;DHT22;30476;53.468;9.826;2022-07-29T15:28:59;28.20;55.60
44166;DHT22;30476;53.468;9.826;2022-07-29T15:31:25;28.10;54.30
44166;DHT22;30476;53.468;9.826;2022-07-29T15:33:50;28.10;55.10
44166;DHT22;30476;53.468;9.826;2022-07-29T15:36:16;28.00;55.70
44166;DHT22;30476;53.468;9.826;2022-07-29T15:38:42;27.90;55.90
44166;DHT22;30476;53.468;9.826;2022-07-29T15:41:12;27.90;56.00
44166;DHT22;30476;53.468;9.826;2022-07-29T15:43:43;27.80;55.90
44166;DHT22;30476;53.468;9.826;2022-07-29T15:46:09;27.80;56.50
44166;DHT22;30476;53.468;9.826;2022-07-29T15:48:56;27.70;56.70
44166;DHT22;30476;53.468;9.826;2022-07-29T15:51:22;27.60;57.00
44166;DHT22;30476;53.468;9.826;2022-07-29T15:53:48;27.60;57.70
44166;DHT22;30476;53.468;9.826;2022-07-29T15:56:13;27.50;57.80
44166;DHT22;30476;53.468;9.826;2022-07-29T15:58:39;27.40;57.90
44166;DHT22;30476;53.468;9.826;2022-07-29T16:01:05;27.30;57.80
44166;DHT22;30476;53.468;9.826;2022-07-29T16:03:30;27.30;58.10
44166;DHT22;30476;53.468;9.826;2022-07-29T16:05:57;27.20;58.20
44166;DHT22;30476;53.468;9.826;2022-07-29T16:08:23;27.10;59.40
44166;DHT22;30476;53.468;9.826;2022-07-29T16:10:49;27.10;59.60